createdAt,value
2023-01-11T00:01:57.769Z,70.29
2023-01-11T00:04:30.696Z,70.10
2023-01-11T00:07:03.015Z,70.24
2023-01-11T00:09:34.737Z,70.05
2023-01-11T00:12:06.531Z,70.69
2023-01-11T00:14:38.203Z,70.86
2023-01-11T00:17:09.941Z,70.75
2023-01-11T00:19:41.957Z,70.35
2023-01-11T00:22:13.791Z,70.32
2023-01-11T00:24:45.505Z,70.34
2023-01-11T00:27:19.924Z,69.94
2023-01-11T00:29:51.613Z,70.56
2023-01-11T00:32:23.529Z,70.39
2023-01-11T00:34:55.196Z,70.10
2023-01-11T00:37:26.907Z,70.78
2023-01-11T00:39:58.621Z,70.14
2023-01-11T00:42:48.966Z,71.09
2023-01-11T00:45:39.302Z,70.79
2023-01-11T00:48:11.148Z,71.29
2023-01-11T00:50:42.833Z,71.26
2023-01-11T00:53:14.617Z,70.80
2023-01-11T00:55:46.440Z,71.30
2023-01-11T00:58:18.080Z,70.82
2023-01-11T01:00:49.754Z,71.29
2023-01-11T01:03:21.405Z,71.29
2023-01-11T01:05:55.879Z,71.34
2023-01-11T01:08:27.798Z,71.73
2023-01-11T01:10:59.454Z,71.69
2023-01-11T01:13:49.879Z,71.20
2023-01-11T01:16:21.640Z,71.56
2023-01-11T01:18:53.985Z,71.15
2023-01-11T01:21:27.491Z,71.17
2023-01-11T01:24:00.542Z,71.07
2023-01-11T01:26:32.236Z,70.94
2023-01-11T01:29:04.600Z,71.50
2023-01-11T01:31:36.323Z,71.59
2023-01-11T01:34:11.175Z,71.71
2023-01-11T01:36:43.251Z,71.44
2023-01-11T01:39:15.183Z,71.01
2023-01-11T01:41:47.171Z,70.87
2023-01-11T01:44:52.617Z,71.25
2023-01-11T01:47:43.439Z,71.36
2023-01-11T01:50:25.403Z,70.83
2023-01-11T01:53:05.724Z,71.12
2023-01-11T01:55:41.148Z,71.33
2023-01-11T01:58:16.028Z,70.97
2023-01-11T02:00:47.917Z,71.39
2023-01-11T02:03:24.632Z,70.89
2023-01-11T02:05:56.410Z,70.77
2023-01-11T02:08:35.808Z,70.57
2023-01-11T02:11:27.920Z,70.93
2023-01-11T02:14:03.496Z,71.06
2023-01-11T02:16:35.522Z,71.30
2023-01-11T02:19:14.784Z,70.63
2023-01-11T02:22:06.993Z,70.47
2023-01-11T02:24:50.967Z,71.04
2023-01-11T02:27:47.617Z,70.95
2023-01-11T02:30:31.227Z,70.80
2023-01-11T02:33:18.774Z,70.35
2023-01-11T02:36:02.847Z,70.63
2023-01-11T02:38:45.617Z,70.71
2023-01-11T02:41:51.199Z,69.97
2023-01-11T02:44:57.295Z,70.26
2023-01-11T02:47:52.509Z,70.37
2023-01-11T02:50:36.103Z,69.78
2023-01-11T02:53:12.720Z,69.92
2023-01-11T02:55:49.427Z,70.41
2023-01-11T02:58:25.148Z,70.00
2023-01-11T03:00:58.780Z,70.03
2023-01-11T03:03:31.066Z,70.35
2023-01-11T03:06:08.555Z,70.02
2023-01-11T03:09:01.882Z,69.71
2023-01-11T03:12:21.674Z,69.24
2023-01-11T03:15:32.245Z,69.77
2023-01-11T03:18:09.891Z,69.62
2023-01-11T03:20:46.859Z,69.13
2023-01-11T03:23:31.100Z,69.09
2023-01-11T03:26:02.690Z,69.64
2023-01-11T03:29:10.662Z,69.31
2023-01-11T03:32:14.318Z,68.83
2023-01-11T03:35:10.643Z,69.19
2023-01-11T03:37:51.139Z,68.91
2023-01-11T03:40:31.093Z,68.66
2023-01-11T03:43:13.538Z,69.04
2023-01-11T03:45:57.369Z,69.27
2023-01-11T03:48:53.113Z,68.44
2023-01-11T03:51:32.131Z,68.80
2023-01-11T03:54:07.258Z,68.68
2023-01-11T03:56:49.271Z,68.37
2023-01-11T03:59:20.977Z,68.83
2023-01-11T04:01:54.495Z,68.53
2023-01-11T04:04:26.406Z,68.80
2023-01-11T04:06:58.459Z,68.56
2023-01-11T04:09:30.153Z,68.98
2023-01-11T04:12:01.819Z,68.11
2023-01-11T04:14:33.562Z,68.49
2023-01-11T04:17:05.703Z,68.06
2023-01-11T04:19:38.670Z,67.24
2023-01-11T04:22:10.362Z,67.94
2023-01-11T04:24:42.141Z,67.41
2023-01-11T04:27:13.844Z,68.06
2023-01-11T04:29:45.545Z,67.62
2023-01-11T04:32:17.315Z,67.47
2023-01-11T04:34:50.538Z,67.45
2023-01-11T04:37:22.213Z,67.68
2023-01-11T04:39:53.913Z,67.00
2023-01-11T04:42:25.947Z,67.19
2023-01-11T04:44:57.607Z,66.87
2023-01-11T04:47:29.286Z,66.77
2023-01-11T04:50:01.586Z,66.45
2023-01-11T04:52:33.258Z,66.81
2023-01-11T04:55:05.371Z,66.63
2023-01-11T04:57:37.087Z,66.75
2023-01-11T05:00:10.993Z,66.64
2023-01-11T05:02:42.887Z,66.39
2023-01-11T05:05:17.557Z,65.96
2023-01-11T05:07:49.284Z,66.04
2023-01-11T05:10:21.173Z,66.17
2023-01-11T05:12:52.870Z,65.97
2023-01-11T05:15:24.587Z,66.18
2023-01-11T05:17:56.255Z,65.37
2023-01-11T05:20:27.969Z,65.46
2023-01-11T05:22:59.661Z,65.08
2023-01-11T05:25:31.372Z,65.49
2023-01-11T05:28:03.061Z,65.21
2023-01-11T05:30:34.753Z,64.76
2023-01-11T05:33:10.422Z,64.85
2023-01-11T05:35:42.147Z,65.08
2023-01-11T05:38:13.902Z,65.24
2023-01-11T05:40:53.124Z,65.14
2023-01-11T05:43:25.504Z,64.61
2023-01-11T05:45:58.220Z,64.48
2023-01-11T05:48:29.940Z,65.02
2023-01-11T05:51:02.328Z,65.23
2023-01-11T05:53:34.010Z,64.53
2023-01-11T05:56:06.453Z,64.49
2023-01-11T05:58:38.198Z,64.85
2023-01-11T06:01:12.637Z,64.14
2023-01-11T06:03:45.278Z,64.51
2023-01-11T06:06:18.543Z,64.35
2023-01-11T06:08:50.277Z,64.20
2023-01-11T06:11:23.351Z,64.01
2023-01-11T06:13:55.277Z,64.37
2023-01-11T06:16:27.106Z,64.15
2023-01-11T06:18:58.856Z,63.63
2023-01-11T06:21:30.535Z,63.87
2023-01-11T06:24:02.249Z,63.52
2023-01-11T06:26:35.195Z,63.45
2023-01-11T06:29:06.888Z,63.12
2023-01-11T06:31:38.558Z,63.23
2023-01-11T06:34:10.377Z,62.37
2023-01-11T06:36:42.195Z,62.83
2023-01-11T06:39:13.897Z,63.32
2023-01-11T06:41:45.566Z,62.42
2023-01-11T06:44:17.316Z,62.82
2023-01-11T06:46:49.177Z,62.10
2023-01-11T06:49:20.877Z,62.18
2023-01-11T06:51:53.056Z,62.72
2023-01-11T06:54:25.764Z,61.89
2023-01-11T06:56:57.962Z,62.31
2023-01-11T06:59:29.657Z,62.33
2023-01-11T07:02:04.344Z,62.26
2023-01-11T07:04:36.174Z,61.36
2023-01-11T07:07:08.011Z,61.65
2023-01-11T07:09:39.752Z,60.94
2023-01-11T07:12:11.443Z,60.92
2023-01-11T07:14:43.185Z,61.03
2023-01-11T07:17:15.065Z,60.35
2023-01-11T07:19:46.737Z,60.32
2023-01-11T07:22:18.494Z,60.50
2023-01-11T07:24:52.149Z,60.35
2023-01-11T07:27:23.945Z,60.08
2023-01-11T07:29:55.710Z,60.11
2023-01-11T07:32:28.086Z,60.12
2023-01-11T07:34:59.796Z,60.34
2023-01-11T07:37:35.251Z,59.87
2023-01-11T07:40:07.785Z,59.51
2023-01-11T07:42:58.248Z,59.62
2023-01-11T07:45:45.412Z,59.43
2023-01-11T07:48:27.098Z,58.88
2023-01-11T07:50:59.264Z,58.44
2023-01-11T07:53:33.902Z,58.94
2023-01-11T07:56:05.800Z,58.55
2023-01-11T07:58:37.520Z,58.96
2023-01-11T08:01:09.319Z,58.30
2023-01-11T08:03:41.138Z,58.75
2023-01-11T08:06:14.623Z,58.02
2023-01-11T08:08:46.304Z,57.73
2023-01-11T08:11:36.804Z,58.25
2023-01-11T08:14:29.075Z,58.47
2023-01-11T08:17:03.744Z,57.98
2023-01-11T08:19:35.787Z,58.26
2023-01-11T08:22:07.799Z,58.43
2023-01-11T08:24:39.532Z,58.27
2023-01-11T08:27:11.452Z,58.53
2023-01-11T08:29:44.471Z,58.13
2023-01-11T08:32:16.173Z,58.67
2023-01-11T08:34:48.093Z,58.39
2023-01-11T08:37:19.799Z,58.37
2023-01-11T08:39:51.567Z,58.20
2023-01-11T08:42:23.323Z,57.55
2023-01-11T08:44:55.540Z,58.04
2023-01-11T08:47:27.256Z,58.31
2023-01-11T08:49:58.982Z,57.48
2023-01-11T08:52:30.732Z,57.63
2023-01-11T08:55:02.468Z,57.67
2023-01-11T08:57:35.355Z,57.60
2023-01-11T09:00:11.587Z,57.68
2023-01-11T09:02:45.429Z,57.55
2023-01-11T09:05:20.803Z,57.86
2023-01-11T09:07:57.631Z,57.83
2023-01-11T09:10:29.925Z,57.62
2023-01-11T09:13:01.737Z,57.75
2023-01-11T09:15:33.478Z,57.94
2023-01-11T09:18:05.474Z,57.92
2023-01-11T09:20:37.154Z,58.03
2023-01-11T09:23:08.885Z,57.70
2023-01-11T09:25:40.625Z,57.89
2023-01-11T09:28:12.376Z,58.38
2023-01-11T09:30:44.238Z,57.79
2023-01-11T09:33:15.951Z,58.15
2023-01-11T09:35:49.247Z,58.05
2023-01-11T09:38:21.111Z,57.83
2023-01-11T09:41:08.353Z,57.89
2023-01-11T09:43:51.084Z,58.16
2023-01-11T09:46:24.706Z,58.09
2023-01-11T09:48:59.665Z,57.73
2023-01-11T09:51:35.395Z,57.23
2023-01-11T09:54:11.817Z,57.79
2023-01-11T09:57:17.138Z,57.62
2023-01-11T09:59:58.350Z,56.95
2023-01-11T10:02:38.263Z,55.17
2023-01-11T10:05:31.997Z,53.13
2023-01-11T10:18:22.039Z,48.86
2023-01-11T10:18:32.627Z,49.11
2023-01-11T10:21:07.184Z,49.61
2023-01-11T10:23:50.206Z,51.21
2023-01-11T10:26:28.749Z,52.08
2023-01-11T10:29:21.224Z,53.06
2023-01-11T10:32:02.928Z,55.09
2023-01-11T10:35:13.690Z,56.33
2023-01-11T10:37:50.210Z,56.07
2023-01-11T10:40:40.474Z,56.18
2023-01-11T10:43:21.875Z,56.78
2023-01-11T10:45:59.356Z,56.97
2023-01-11T10:48:38.008Z,57.86
2023-01-11T10:51:09.699Z,57.53
2023-01-11T10:54:14.295Z,58.24
2023-01-11T10:57:18.307Z,58.85
2023-01-11T11:00:22.662Z,59.21
2023-01-11T11:03:06.801Z,59.84
2023-01-11T11:05:50.310Z,59.72
2023-01-11T11:08:56.356Z,60.65
2023-01-11T11:11:57.901Z,60.69
2023-01-11T11:14:59.997Z,60.29
2023-01-11T11:17:42.126Z,61.17
2023-01-11T11:20:17.019Z,61.70
2023-01-11T11:22:50.768Z,63.49
2023-01-11T11:25:27.561Z,61.83
2023-01-11T11:28:15.493Z,61.81
2023-01-11T11:30:48.128Z,61.51
2023-01-11T11:33:26.535Z,61.44
2023-01-11T11:36:06.576Z,61.40
2023-01-11T11:38:41.878Z,61.40
2023-01-11T11:41:17.084Z,61.42
2023-01-11T11:43:48.901Z,61.34
2023-01-11T11:46:27.269Z,61.55
2023-01-11T11:49:18.221Z,61.73
2023-01-11T11:51:52.051Z,61.35
2023-01-11T11:54:26.594Z,61.53
2023-01-11T11:57:18.171Z,62.08
2023-01-11T12:00:02.373Z,61.90
2023-01-11T12:02:39.011Z,61.88
2023-01-11T12:05:11.331Z,62.11
2023-01-11T12:07:55.293Z,61.89
2023-01-11T12:10:29.159Z,61.20
2023-01-11T12:13:03.074Z,61.11
2023-01-11T12:15:37.576Z,61.16
2023-01-11T12:18:38.886Z,61.56
2023-01-11T12:21:21.757Z,61.49
2023-01-11T12:24:17.209Z,61.24
2023-01-11T12:27:02.851Z,61.12
2023-01-11T12:29:40.751Z,61.66
2023-01-11T12:32:30.585Z,61.70
2023-01-11T12:35:25.230Z,61.62
2023-01-11T12:38:24.691Z,61.16
2023-01-11T12:41:08.782Z,61.76
2023-01-11T12:43:58.758Z,61.20
2023-01-11T12:46:45.354Z,61.27
2023-01-11T12:49:43.092Z,61.93
2023-01-11T12:52:33.545Z,61.83
2023-01-11T12:55:11.419Z,61.61
2023-01-11T12:58:14.166Z,62.03
2023-01-11T13:01:04.503Z,61.54
2023-01-11T13:03:57.717Z,61.70
2023-01-11T13:06:57.340Z,61.91
2023-01-11T13:10:21.147Z,61.79
2023-01-11T13:13:27.953Z,61.83
2023-01-11T13:16:37.517Z,61.51
2023-01-11T13:19:21.335Z,60.89
2023-01-11T13:21:56.378Z,60.99
2023-01-11T13:24:31.309Z,61.48
2023-01-11T13:27:07.496Z,61.23
2023-01-11T13:29:45.625Z,61.42
2023-01-11T13:32:22.460Z,60.97
2023-01-11T13:35:15.348Z,60.72
2023-01-11T13:37:55.350Z,61.41
2023-01-11T13:40:38.558Z,60.75
2023-01-11T13:43:18.342Z,61.15
2023-01-11T13:46:03.286Z,61.33
2023-01-11T13:48:42.086Z,61.45
2023-01-11T13:51:31.536Z,60.88
2023-01-11T13:54:22.445Z,61.40
2023-01-11T13:57:13.243Z,60.80
2023-01-11T13:59:51.487Z,68.83
2023-01-11T14:02:48.610Z,61.44
2023-01-11T14:05:22.775Z,61.16
2023-01-11T14:08:19.050Z,60.91
2023-01-11T14:11:06.027Z,60.80
2023-01-11T14:14:12.512Z,60.83
2023-01-11T14:16:50.205Z,60.39
2023-01-11T14:19:28.799Z,60.71
2023-01-11T14:22:31.031Z,60.67
2023-01-11T14:26:01.426Z,60.95
2023-01-11T14:28:39.045Z,61.84
2023-01-11T14:31:32.562Z,62.41
2023-01-11T14:34:23.012Z,63.18
2023-01-11T14:37:00.675Z,63.07
2023-01-11T14:39:43.117Z,63.37
2023-01-11T14:42:35.319Z,62.72
2023-01-11T14:45:22.441Z,63.20
2023-01-11T14:47:54.053Z,63.67
2023-01-11T14:50:41.012Z,64.11
2023-01-11T14:53:19.643Z,64.00
2023-01-11T14:55:54.315Z,63.63
2023-01-11T14:58:29.707Z,63.96
2023-01-11T15:01:08.622Z,64.40
2023-01-11T15:03:47.186Z,64.48
2023-01-11T15:06:21.509Z,64.51
2023-01-11T15:08:55.348Z,64.75
2023-01-11T15:11:37.059Z,64.41
2023-01-11T15:14:23.575Z,64.03
2023-01-11T15:17:20.920Z,64.13
2023-01-11T15:19:54.863Z,64.64
2023-01-11T15:22:30.832Z,64.37
2023-01-11T15:25:07.763Z,64.54
2023-01-11T15:27:39.706Z,64.47
2023-01-11T15:30:29.898Z,64.14
2023-01-11T15:33:19.725Z,63.83
2023-01-11T15:35:57.589Z,64.68
2023-01-11T15:38:42.650Z,64.80
2023-01-11T15:41:35.919Z,64.72
2023-01-11T15:44:54.800Z,64.52
2023-01-11T15:47:32.292Z,64.94
2023-01-11T15:50:25.144Z,64.92
2023-01-11T15:53:18.335Z,64.82
2023-01-11T15:56:27.966Z,64.56
2023-01-11T15:59:36.184Z,65.08
2023-01-11T16:02:34.668Z,65.54
2023-01-11T16:05:13.890Z,65.16
2023-01-11T16:08:15.438Z,64.86
2023-01-11T16:11:13.151Z,65.41
2023-01-11T16:13:55.868Z,65.14
2023-01-11T16:16:31.777Z,65.03
2023-01-11T16:19:20.194Z,65.11
2023-01-11T16:22:01.787Z,65.36
2023-01-11T16:24:42.630Z,65.71
2023-01-11T16:27:24.653Z,65.85
2023-01-11T16:29:57.943Z,65.55
2023-01-11T16:32:34.970Z,66.35
2023-01-11T16:35:24.381Z,66.63
2023-01-11T16:38:02.604Z,66.99
2023-01-11T16:40:42.452Z,67.27
2023-01-11T16:43:31.061Z,68.28
2023-01-11T16:46:03.382Z,68.28
2023-01-11T16:48:35.607Z,68.63
2023-01-11T16:51:10.402Z,68.70
2023-01-11T16:53:45.126Z,69.24
2023-01-11T16:56:18.704Z,69.59
2023-01-11T16:59:15.494Z,70.36
2023-01-11T17:01:53.086Z,70.63
2023-01-11T17:04:33.927Z,70.48
2023-01-11T17:07:22.769Z,71.06
2023-01-11T17:10:16.565Z,71.21
2023-01-11T17:13:43.088Z,71.33
2023-01-11T17:16:16.184Z,71.12
2023-01-11T17:18:48.054Z,72.22
2023-01-11T17:21:24.154Z,71.96
2023-01-11T17:24:00.440Z,71.63
2023-01-11T17:26:42.614Z,72.96
2023-01-11T17:29:38.454Z,72.67
2023-01-11T17:32:38.073Z,72.74
2023-01-11T17:35:22.613Z,73.00
2023-01-11T17:38:06.454Z,73.85
2023-01-11T17:40:42.060Z,74.12
2023-01-11T17:43:44.751Z,73.95
2023-01-11T17:46:23.632Z,73.96
2023-01-11T17:48:59.669Z,77.41
2023-01-11T17:51:34.772Z,78.34
2023-01-11T17:54:21.854Z,77.32
2023-01-11T17:57:00.699Z,77.36
2023-01-11T17:59:32.374Z,77.19
2023-01-11T18:02:13.038Z,76.18
2023-01-11T18:04:59.661Z,77.59
2023-01-11T18:07:31.425Z,75.06
2023-01-11T18:10:03.966Z,73.32
2023-01-11T18:12:35.952Z,73.54
2023-01-11T18:15:08.393Z,74.23
2023-01-11T18:17:42.288Z,74.50
2023-01-11T18:20:14.028Z,74.78
2023-01-11T18:22:58.827Z,75.72
2023-01-11T18:25:33.897Z,75.75
2023-01-11T18:28:27.909Z,76.34
2023-01-11T18:31:01.933Z,76.78
2023-01-11T18:33:34.671Z,77.18
2023-01-11T18:36:22.574Z,76.72
2023-01-11T18:38:54.282Z,77.44
2023-01-11T18:41:44.893Z,78.29
2023-01-11T18:44:17.943Z,78.04
2023-01-11T18:46:49.622Z,78.13
2023-01-11T18:49:21.357Z,78.80
2023-01-11T18:51:53.041Z,78.68
2023-01-11T18:54:24.807Z,78.80
2023-01-11T18:56:58.804Z,78.90
2023-01-11T18:59:30.524Z,79.73
2023-01-11T19:02:16.522Z,81.66
2023-01-11T19:04:49.331Z,82.94
2023-01-11T19:07:21.907Z,83.47
2023-01-11T19:09:59.314Z,80.22
2023-01-11T19:12:31.278Z,78.97
2023-01-11T19:15:03.049Z,78.79
2023-01-11T19:17:34.902Z,77.58
2023-01-11T19:20:09.188Z,77.22
2023-01-11T19:22:41.928Z,77.86
2023-01-11T19:25:13.650Z,76.65
2023-01-11T19:27:45.379Z,76.67
2023-01-11T19:30:17.373Z,75.82
2023-01-11T19:32:53.012Z,75.96
2023-01-11T19:35:24.823Z,74.99
2023-01-11T19:37:56.568Z,74.69
2023-01-11T19:40:28.383Z,74.37
2023-01-11T19:43:03.122Z,74.04
2023-01-11T19:45:34.672Z,74.39
2023-01-11T19:48:07.230Z,74.85
2023-01-11T19:50:41.739Z,75.15
2023-01-11T19:53:13.457Z,74.99
2023-01-11T19:55:45.663Z,75.41
2023-01-11T19:58:17.389Z,76.07
2023-01-11T20:00:49.121Z,75.82
2023-01-11T20:03:20.891Z,75.90
2023-01-11T20:05:52.590Z,76.90
2023-01-11T20:08:24.310Z,77.15
2023-01-11T20:10:56.518Z,77.10
2023-01-11T20:13:28.250Z,77.45
2023-01-11T20:16:08.413Z,77.47
2023-01-11T20:18:42.374Z,77.26
2023-01-11T20:21:14.157Z,77.70
2023-01-11T20:23:45.928Z,78.64
2023-01-11T20:26:18.104Z,78.66
2023-01-11T20:28:53.302Z,78.58
2023-01-11T20:31:27.909Z,79.30
2023-01-11T20:34:13.620Z,78.56
2023-01-11T20:36:45.592Z,78.58
2023-01-11T20:39:17.583Z,79.15
2023-01-11T20:41:51.880Z,78.71
2023-01-11T20:44:27.377Z,78.84
2023-01-11T20:46:59.893Z,79.36
2023-01-11T20:49:31.614Z,78.45
2023-01-11T20:52:03.716Z,78.22
2023-01-11T20:54:37.064Z,78.62
2023-01-11T20:57:12.594Z,78.38
2023-01-11T20:59:44.506Z,78.31
2023-01-11T21:02:16.470Z,78.60
2023-01-11T21:04:48.138Z,79.27
2023-01-11T21:07:19.968Z,78.37
2023-01-11T21:09:51.828Z,79.03
2023-01-11T21:12:24.011Z,79.01
2023-01-11T21:14:55.726Z,78.80
2023-01-11T21:17:27.917Z,79.28
2023-01-11T21:19:59.660Z,78.93
2023-01-11T21:22:31.357Z,79.08
2023-01-11T21:25:03.162Z,79.13
2023-01-11T21:27:34.905Z,78.53
2023-01-11T21:30:07.083Z,78.60
2023-01-11T21:32:38.997Z,79.07
2023-01-11T21:35:10.798Z,79.18
2023-01-11T21:37:42.535Z,79.06
2023-01-11T21:40:14.890Z,79.53
2023-01-11T21:42:46.600Z,79.26
2023-01-11T21:45:18.377Z,78.80
2023-01-11T21:47:50.108Z,79.01
2023-01-11T21:50:21.833Z,78.76
2023-01-11T21:52:55.089Z,78.89
2023-01-11T21:55:31.068Z,78.66
2023-01-11T21:58:02.828Z,79.11
2023-01-11T22:00:35.725Z,78.46
2023-01-11T22:03:07.483Z,78.81
2023-01-11T22:05:43.090Z,78.83
2023-01-11T22:08:15.073Z,78.62
2023-01-11T22:10:59.107Z,78.33
2023-01-11T22:13:32.076Z,78.92
2023-01-11T22:16:06.538Z,78.62
2023-01-11T22:18:38.394Z,78.80
2023-01-11T22:21:12.931Z,78.15
2023-01-11T22:23:46.091Z,78.61
2023-01-11T22:26:19.704Z,78.66
2023-01-11T22:29:14.128Z,78.48
2023-01-11T22:31:52.671Z,78.60
2023-01-11T22:34:25.099Z,78.54
2023-01-11T22:36:56.975Z,78.89
2023-01-11T22:39:29.570Z,78.49
2023-01-11T22:42:01.305Z,78.31
2023-01-11T22:44:35.220Z,78.92
2023-01-11T22:47:06.954Z,78.53
2023-01-11T22:49:38.652Z,78.60
2023-01-11T22:52:10.439Z,78.92
2023-01-11T22:54:42.548Z,79.18
2023-01-11T22:57:14.522Z,79.25
2023-01-11T22:59:46.215Z,79.40
2023-01-11T23:02:18.299Z,78.95
2023-01-11T23:04:49.995Z,79.35
2023-01-11T23:07:21.724Z,79.50
2023-01-11T23:09:53.457Z,79.90
2023-01-11T23:12:43.817Z,79.60
2023-01-11T23:15:15.564Z,80.00
2023-01-11T23:17:48.559Z,79.65
2023-01-11T23:20:20.286Z,80.14
2023-01-11T23:22:52.023Z,80.14
2023-01-11T23:25:23.718Z,78.99
2023-01-11T23:27:55.724Z,79.42
2023-01-11T23:30:27.595Z,79.70
2023-01-11T23:32:59.379Z,79.74
2023-01-11T23:35:31.429Z,79.84
2023-01-11T23:38:03.478Z,79.17
2023-01-11T23:40:55.699Z,79.62
2023-01-11T23:43:27.697Z,79.49
2023-01-11T23:46:23.169Z,80.04
2023-01-11T23:48:55.223Z,80.14
2023-01-11T23:51:26.950Z,79.86
2023-01-11T23:53:59.958Z,80.41
2023-01-11T23:56:32.800Z,80.05
2023-01-11T23:59:06.995Z,80.26
